createdAt,value
2018-11-26T00:00:36.450Z,99.90
2018-11-26T00:03:10.461Z,99.90
2018-11-26T00:05:39.688Z,99.90
2018-11-26T00:08:10.755Z,99.90
2018-11-26T00:10:50.609Z,99.90
2018-11-26T00:13:19.186Z,99.90
2018-11-26T00:15:47.764Z,99.90
2018-11-26T00:18:16.339Z,99.90
2018-11-26T00:20:44.922Z,99.90
2018-11-26T00:23:13.466Z,99.90
2018-11-26T00:25:42.039Z,99.90
2018-11-26T00:28:10.603Z,99.90
2018-11-26T00:30:39.463Z,99.90
2018-11-26T00:33:08.038Z,99.90
2018-11-26T00:35:36.594Z,99.90
2018-11-26T00:38:05.230Z,99.90
2018-11-26T00:40:33.783Z,99.90
2018-11-26T00:43:02.419Z,99.90
2018-11-26T00:45:31.056Z,99.90
2018-11-26T00:47:59.631Z,99.90
2018-11-26T00:50:28.219Z,99.90
2018-11-26T00:52:56.815Z,99.90
2018-11-26T00:55:25.412Z,99.90
2018-11-26T00:57:54.005Z,99.90
2018-11-26T01:00:22.565Z,99.90
2018-11-26T01:02:51.156Z,99.90
2018-11-26T01:05:41.124Z,99.90
2018-11-26T01:08:09.930Z,99.90
2018-11-26T01:10:38.595Z,99.90
2018-11-26T01:13:07.526Z,99.90
2018-11-26T01:15:36.131Z,99.90
2018-11-26T01:18:05.090Z,99.90
2018-11-26T01:20:33.681Z,99.90
2018-11-26T01:23:02.286Z,99.90
2018-11-26T01:25:30.888Z,99.90
2018-11-26T01:27:59.477Z,99.90
2018-11-26T01:30:28.058Z,99.90
2018-11-26T01:32:56.621Z,99.90
2018-11-26T01:35:25.210Z,99.90
2018-11-26T01:37:53.799Z,99.90
2018-11-26T01:40:29.225Z,99.90
2018-11-26T01:42:57.933Z,99.90
2018-11-26T01:45:26.495Z,99.90
2018-11-26T01:47:55.119Z,99.90
2018-11-26T01:50:23.711Z,99.90
2018-11-26T01:52:52.276Z,99.90
2018-11-26T01:55:20.880Z,99.90
2018-11-26T01:57:49.449Z,99.90
2018-11-26T02:00:20.286Z,99.90
2018-11-26T02:02:48.853Z,99.90
2018-11-26T02:05:17.439Z,99.90
2018-11-26T02:07:46.026Z,99.90
2018-11-26T02:10:16.843Z,99.90
2018-11-26T02:12:45.488Z,99.90
2018-11-26T02:15:23.884Z,99.90
2018-11-26T02:17:52.490Z,99.90
2018-11-26T02:20:20.998Z,99.90
2018-11-26T02:22:49.537Z,99.90
2018-11-26T02:25:18.098Z,99.90
2018-11-26T02:27:46.621Z,99.90
2018-11-26T02:30:15.111Z,99.90
2018-11-26T02:32:43.677Z,99.90
2018-11-26T02:35:12.212Z,99.90
2018-11-26T02:37:40.748Z,99.90
2018-11-26T02:40:12.004Z,99.90
2018-11-26T02:42:40.530Z,99.90
2018-11-26T02:45:09.133Z,99.90
2018-11-26T02:47:37.687Z,99.90
2018-11-26T02:50:06.273Z,99.90
2018-11-26T02:52:34.800Z,99.90
2018-11-26T02:55:03.377Z,99.90
2018-11-26T02:57:31.905Z,99.90
2018-11-26T03:00:00.449Z,99.90
2018-11-26T03:02:28.970Z,99.90
2018-11-26T03:04:57.525Z,99.90
2018-11-26T03:07:26.058Z,99.90
2018-11-26T03:09:54.578Z,99.90
2018-11-26T03:12:23.118Z,99.90
2018-11-26T03:14:51.649Z,99.90
2018-11-26T03:17:20.200Z,99.90
2018-11-26T03:19:48.801Z,99.90
2018-11-26T03:22:17.324Z,99.90
2018-11-26T03:24:45.903Z,99.90
2018-11-26T03:27:14.426Z,99.90
2018-11-26T03:29:42.946Z,99.90
2018-11-26T03:32:11.477Z,99.90
2018-11-26T03:34:40.045Z,99.90
2018-11-26T03:37:08.610Z,99.90
2018-11-26T03:39:37.129Z,99.90
2018-11-26T03:42:05.713Z,99.90
2018-11-26T03:44:34.290Z,99.90
2018-11-26T03:47:02.813Z,99.90
2018-11-26T03:49:31.358Z,99.90
2018-11-26T03:51:59.901Z,99.90
2018-11-26T03:54:28.413Z,99.90
2018-11-26T03:56:56.977Z,99.90
2018-11-26T03:59:25.542Z,99.90
2018-11-26T04:01:54.077Z,99.90
2018-11-26T04:04:22.636Z,99.90
2018-11-26T04:06:51.180Z,99.90
2018-11-26T04:09:19.720Z,99.90
2018-11-26T04:11:48.257Z,99.90
2018-11-26T04:14:16.798Z,99.90
2018-11-26T04:16:45.313Z,99.90
2018-11-26T04:19:13.850Z,99.90
2018-11-26T04:21:42.353Z,99.90
2018-11-26T04:24:10.858Z,99.90
2018-11-26T04:26:39.426Z,99.90
2018-11-26T04:29:07.929Z,99.90
2018-11-26T04:31:36.459Z,99.90
2018-11-26T04:34:05.300Z,99.90
2018-11-26T04:36:33.894Z,99.90
2018-11-26T04:39:02.390Z,99.90
2018-11-26T04:41:30.965Z,99.90
2018-11-26T04:43:59.497Z,99.90
2018-11-26T04:46:28.032Z,99.90
2018-11-26T04:48:56.565Z,99.90
2018-11-26T04:51:25.072Z,99.90
2018-11-26T04:53:53.576Z,99.90
2018-11-26T04:56:22.597Z,99.90
2018-11-26T04:58:51.112Z,99.90
2018-11-26T05:01:19.676Z,99.90
2018-11-26T05:03:48.197Z,99.90
2018-11-26T05:06:16.753Z,99.90
2018-11-26T05:08:45.305Z,99.90
2018-11-26T05:11:13.832Z,99.90
2018-11-26T05:13:42.350Z,99.90
2018-11-26T05:16:10.894Z,99.90
2018-11-26T05:18:39.450Z,99.90
2018-11-26T05:21:08.001Z,99.90
2018-11-26T05:23:36.532Z,99.90
2018-11-26T05:26:05.529Z,99.90
2018-11-26T05:28:34.067Z,99.90
2018-11-26T05:31:02.605Z,99.90
2018-11-26T05:33:31.141Z,99.90
2018-11-26T05:35:59.772Z,99.90
2018-11-26T05:38:28.326Z,99.90
2018-11-26T05:40:56.856Z,99.90
2018-11-26T05:43:25.377Z,99.90
2018-11-26T05:45:53.925Z,99.90
2018-11-26T05:48:22.457Z,99.90
2018-11-26T05:50:51.000Z,99.90
2018-11-26T05:53:19.502Z,99.90
2018-11-26T05:55:48.016Z,99.90
2018-11-26T05:58:16.541Z,99.90
2018-11-26T06:00:45.097Z,99.90
2018-11-26T06:03:13.632Z,99.90
2018-11-26T06:05:42.175Z,99.90
2018-11-26T06:08:10.694Z,99.90
2018-11-26T06:10:39.208Z,99.90
2018-11-26T06:13:07.766Z,99.90
2018-11-26T06:15:36.319Z,99.90
2018-11-26T06:18:05.098Z,99.90
2018-11-26T06:20:33.664Z,99.90
2018-11-26T06:23:02.209Z,99.90
2018-11-26T06:25:30.719Z,99.90
2018-11-26T06:27:59.241Z,99.90
2018-11-26T06:30:27.785Z,99.90
2018-11-26T06:32:56.285Z,99.90
2018-11-26T06:35:24.835Z,99.90
2018-11-26T06:37:54.164Z,99.90
2018-11-26T06:40:21.969Z,99.90
2018-11-26T06:42:50.521Z,99.90
2018-11-26T06:45:21.214Z,99.90
2018-11-26T06:47:49.768Z,99.90
2018-11-26T06:50:20.049Z,99.90
2018-11-26T06:52:48.648Z,99.90
2018-11-26T06:55:20.227Z,99.90
2018-11-26T06:57:48.907Z,99.90
2018-11-26T07:00:18.728Z,99.90
2018-11-26T07:02:47.288Z,99.90
2018-11-26T07:05:19.968Z,99.90
2018-11-26T07:07:48.693Z,99.90
2018-11-26T07:10:18.026Z,99.90
2018-11-26T07:12:46.585Z,99.90
2018-11-26T07:15:16.393Z,99.90
2018-11-26T07:17:44.944Z,99.90
2018-11-26T07:20:14.637Z,99.90
2018-11-26T07:22:43.211Z,99.90
2018-11-26T07:25:12.960Z,99.90
2018-11-26T07:27:41.835Z,99.90
2018-11-26T07:30:14.741Z,99.90
2018-11-26T07:32:43.597Z,99.90
2018-11-26T07:35:12.686Z,99.90
2018-11-26T07:37:41.721Z,99.90
2018-11-26T07:40:12.602Z,99.90
2018-11-26T07:42:43.069Z,99.90
2018-11-26T07:45:13.469Z,99.90
2018-11-26T07:47:42.021Z,99.90
2018-11-26T07:50:12.820Z,99.90
2018-11-26T07:52:41.357Z,99.90
2018-11-26T07:55:11.694Z,99.90
2018-11-26T07:57:40.237Z,99.90
2018-11-26T08:00:13.974Z,99.90
2018-11-26T08:02:42.879Z,99.90
2018-11-26T08:05:15.034Z,99.90
2018-11-26T08:07:43.609Z,99.90
2018-11-26T08:10:16.307Z,99.90
2018-11-26T08:12:45.618Z,99.90
2018-11-26T08:15:23.322Z,99.90
2018-11-26T08:17:51.888Z,99.90
2018-11-26T08:20:20.409Z,99.90
2018-11-26T08:22:48.935Z,99.90
2018-11-26T08:25:19.188Z,99.90
2018-11-26T08:27:48.476Z,99.90
2018-11-26T08:30:20.158Z,99.90
2018-11-26T08:32:50.910Z,99.90
2018-11-26T08:35:19.481Z,99.90
2018-11-26T08:37:53.418Z,99.90
2018-11-26T08:40:37.322Z,99.90
2018-11-26T08:43:06.883Z,99.90
2018-11-26T08:45:38.304Z,99.90
2018-11-26T08:48:12.345Z,99.90
2018-11-26T08:50:40.885Z,99.90
2018-11-26T08:53:09.458Z,99.90
2018-11-26T08:55:38.006Z,99.90
2018-11-26T08:58:06.865Z,99.90
2018-11-26T09:00:35.421Z,99.90
2018-11-26T09:03:09.985Z,99.90
2018-11-26T09:05:46.106Z,99.90
2018-11-26T09:08:15.053Z,99.90
2018-11-26T09:10:43.688Z,99.90
2018-11-26T09:13:12.264Z,99.90
2018-11-26T09:15:40.968Z,99.90
2018-11-26T09:18:09.533Z,99.90
2018-11-26T09:20:38.048Z,99.90
2018-11-26T09:23:06.787Z,99.90
2018-11-26T09:25:35.345Z,99.90
2018-11-26T09:28:03.917Z,99.90
2018-11-26T09:30:32.438Z,99.90
2018-11-26T09:33:00.974Z,99.90
2018-11-26T09:35:29.512Z,99.90
2018-11-26T09:37:58.037Z,99.90
2018-11-26T09:40:26.604Z,99.90
2018-11-26T09:42:55.125Z,99.90
2018-11-26T09:45:23.787Z,99.90
2018-11-26T09:47:52.329Z,99.90
2018-11-26T09:50:22.161Z,99.90
2018-11-26T09:52:50.741Z,99.90
2018-11-26T09:55:19.337Z,99.90
2018-11-26T09:57:47.849Z,99.90
2018-11-26T10:00:18.773Z,99.90
2018-11-26T10:02:48.378Z,99.90
2018-11-26T10:05:24.944Z,99.90
2018-11-26T10:07:53.474Z,99.90
2018-11-26T10:10:21.995Z,99.90
2018-11-26T10:12:50.561Z,99.90
2018-11-26T10:15:21.506Z,99.90
2018-11-26T10:17:50.041Z,99.90
2018-11-26T10:20:18.588Z,99.90
2018-11-26T10:22:47.689Z,99.90
2018-11-26T10:25:17.438Z,99.90
2018-11-26T10:27:45.961Z,99.90
2018-11-26T10:30:15.929Z,99.90
2018-11-26T10:32:45.137Z,99.90
2018-11-26T10:35:14.877Z,99.90
2018-11-26T10:37:43.552Z,99.90
2018-11-26T10:40:15.194Z,99.90
2018-11-26T10:42:43.737Z,99.90
2018-11-26T10:45:13.414Z,99.90
2018-11-26T10:47:42.090Z,99.90
2018-11-26T10:50:11.988Z,99.90
2018-11-26T10:52:41.590Z,99.90
2018-11-26T10:55:15.650Z,99.90
2018-11-26T10:57:44.179Z,99.90
2018-11-26T11:00:19.347Z,99.90
2018-11-26T11:02:47.875Z,99.90
2018-11-26T11:05:16.478Z,99.90
2018-11-26T11:07:45.008Z,99.90
2018-11-26T11:10:16.717Z,99.90
2018-11-26T11:12:45.302Z,99.90
2018-11-26T11:15:14.011Z,99.90
2018-11-26T11:17:42.539Z,99.90
2018-11-26T11:20:14.566Z,99.90
2018-11-26T11:22:43.094Z,99.90
2018-11-26T11:25:12.984Z,99.90
2018-11-26T11:27:41.557Z,99.90
2018-11-26T11:30:12.605Z,99.90
2018-11-26T11:32:41.332Z,99.90
2018-11-26T11:35:11.938Z,99.90
2018-11-26T11:37:41.050Z,99.90
2018-11-26T11:40:14.938Z,99.90
2018-11-26T11:42:43.458Z,99.90
2018-11-26T11:45:12.875Z,99.90
2018-11-26T11:47:41.599Z,99.90
2018-11-26T11:50:12.419Z,99.90
2018-11-26T11:52:41.178Z,99.90
2018-11-26T11:55:16.522Z,99.90
2018-11-26T11:57:45.129Z,99.90
2018-11-26T12:00:39.419Z,99.90
2018-11-26T12:03:17.919Z,99.90
2018-11-26T12:05:46.442Z,99.90
2018-11-26T12:08:15.283Z,99.90
2018-11-26T12:10:43.874Z,99.90
2018-11-26T12:13:13.646Z,99.90
2018-11-26T12:15:47.990Z,99.90
2018-11-26T12:18:16.508Z,99.90
2018-11-26T12:20:45.032Z,99.90
2018-11-26T12:23:13.621Z,99.90
2018-11-26T12:25:42.175Z,99.90
2018-11-26T12:28:10.703Z,99.90
2018-11-26T12:30:43.090Z,99.90
2018-11-26T12:33:11.691Z,99.90
2018-11-26T12:35:40.610Z,99.90
2018-11-26T12:38:09.163Z,99.90
2018-11-26T12:40:37.684Z,99.90
2018-11-26T12:43:07.177Z,99.90
2018-11-26T12:45:36.116Z,99.90
2018-11-26T12:48:04.713Z,99.90
2018-11-26T12:50:33.269Z,99.90
2018-11-26T12:53:01.808Z,99.90
2018-11-26T12:55:30.374Z,99.90
2018-11-26T12:57:59.326Z,99.90
2018-11-26T13:00:29.545Z,99.90
2018-11-26T13:02:59.647Z,99.90
2018-11-26T13:05:28.250Z,99.90
2018-11-26T13:07:56.742Z,99.90
2018-11-26T13:10:25.331Z,99.90
2018-11-26T13:12:54.311Z,99.90
2018-11-26T13:15:24.097Z,99.90
2018-11-26T13:17:52.697Z,99.90
2018-11-26T13:20:24.022Z,99.90
2018-11-26T13:22:53.716Z,99.90
2018-11-26T13:25:24.976Z,99.90
2018-11-26T13:27:55.724Z,99.90
2018-11-26T13:30:27.716Z,99.90
2018-11-26T13:32:58.534Z,99.90
2018-11-26T13:35:27.160Z,99.90
2018-11-26T13:37:55.726Z,99.90
2018-11-26T13:40:24.281Z,99.90
2018-11-26T13:42:52.920Z,99.90
2018-11-26T13:45:24.802Z,99.90
2018-11-26T13:47:53.506Z,99.90
2018-11-26T13:50:26.370Z,99.90
2018-11-26T13:52:55.388Z,99.90
2018-11-26T13:55:23.983Z,99.90
2018-11-26T13:57:52.735Z,99.90
2018-11-26T14:00:21.280Z,99.90
2018-11-26T14:02:49.831Z,99.90
2018-11-26T14:05:19.100Z,99.90
2018-11-26T14:07:48.011Z,99.90
2018-11-26T14:10:23.895Z,99.90
2018-11-26T14:13:00.111Z,99.90
2018-11-26T14:15:28.731Z,99.90
2018-11-26T14:17:57.259Z,99.90
2018-11-26T14:20:25.845Z,99.90
2018-11-26T14:22:54.394Z,99.90
2018-11-26T14:25:22.963Z,99.90
2018-11-26T14:27:51.850Z,99.90
2018-11-26T14:30:23.297Z,99.90
2018-11-26T14:32:52.158Z,99.90
2018-11-26T14:35:21.121Z,99.90
2018-11-26T14:37:52.746Z,99.90
2018-11-26T14:40:24.866Z,99.90
2018-11-26T14:42:53.420Z,99.90
2018-11-26T14:45:21.971Z,99.90
2018-11-26T14:47:50.515Z,99.90
2018-11-26T14:50:19.147Z,99.90
2018-11-26T14:52:48.910Z,99.90
2018-11-26T14:55:25.399Z,99.90
2018-11-26T14:57:53.952Z,99.90
2018-11-26T15:00:22.539Z,99.90
2018-11-26T15:02:51.127Z,99.90
2018-11-26T15:05:19.801Z,99.90
2018-11-26T15:07:48.337Z,99.90
2018-11-26T15:10:18.979Z,99.90
2018-11-26T15:12:47.899Z,99.90
2018-11-26T15:15:20.991Z,99.90
2018-11-26T15:17:49.520Z,99.90
2018-11-26T15:20:25.875Z,99.90
2018-11-26T15:22:55.468Z,99.90
2018-11-26T15:25:25.189Z,99.90
2018-11-26T15:27:55.127Z,99.90
2018-11-26T15:30:23.851Z,99.90
2018-11-26T15:32:52.410Z,99.90
2018-11-26T15:35:23.622Z,99.90
2018-11-26T15:37:52.192Z,99.90
2018-11-26T15:40:21.733Z,99.90
2018-11-26T15:42:50.421Z,99.90
2018-11-26T15:45:27.147Z,99.90
2018-11-26T15:47:57.266Z,99.90
2018-11-26T15:50:33.152Z,99.90
2018-11-26T15:53:01.727Z,99.90
2018-11-26T15:55:30.281Z,99.90
2018-11-26T15:57:58.861Z,99.90
2018-11-26T16:00:27.514Z,99.90
2018-11-26T16:02:56.065Z,99.90
2018-11-26T16:05:25.938Z,99.90
2018-11-26T16:07:58.958Z,99.90
2018-11-26T16:10:27.540Z,99.90
2018-11-26T16:12:57.515Z,99.90
2018-11-26T16:15:32.755Z,99.90
2018-11-26T16:18:06.597Z,99.90
2018-11-26T16:20:35.191Z,99.90
2018-11-26T16:23:03.798Z,99.90
2018-11-26T16:25:32.372Z,99.90
2018-11-26T16:28:00.979Z,99.90
2018-11-26T16:30:30.077Z,99.90
2018-11-26T16:33:00.825Z,99.90
2018-11-26T16:35:32.006Z,99.90
2018-11-26T16:38:01.117Z,99.90
2018-11-26T16:40:29.785Z,99.90
2018-11-26T16:42:58.338Z,99.90
2018-11-26T16:45:27.969Z,99.90
2018-11-26T16:47:58.058Z,99.90
2018-11-26T16:50:28.331Z,99.90
2018-11-26T16:52:56.878Z,99.90
2018-11-26T16:55:25.578Z,99.90
2018-11-26T16:57:54.194Z,99.90
2018-11-26T17:00:24.768Z,99.90
2018-11-26T17:02:54.611Z,99.90
2018-11-26T17:05:54.279Z,99.90
2018-11-26T17:08:24.402Z,99.90
2018-11-26T17:10:53.279Z,99.90
2018-11-26T17:13:21.841Z,99.90
2018-11-26T17:15:50.394Z,99.90
2018-11-26T17:18:18.929Z,99.90
2018-11-26T17:20:47.505Z,99.90
2018-11-26T17:23:16.069Z,99.90
2018-11-26T17:25:44.590Z,99.90
2018-11-26T17:28:13.202Z,99.90
2018-11-26T17:30:42.006Z,99.90
2018-11-26T17:33:11.548Z,99.90
2018-11-26T17:35:40.963Z,99.90
2018-11-26T17:38:09.527Z,99.90
2018-11-26T17:40:39.247Z,99.90
2018-11-26T17:43:10.298Z,99.90
2018-11-26T17:45:38.825Z,99.90
2018-11-26T17:48:07.698Z,99.90
2018-11-26T17:50:39.403Z,99.90
2018-11-26T17:53:11.102Z,99.90
2018-11-26T17:55:52.573Z,99.90
2018-11-26T17:58:22.483Z,99.90
2018-11-26T18:01:02.306Z,99.90
2018-11-26T18:03:30.861Z,99.90
2018-11-26T18:05:59.407Z,99.90
2018-11-26T18:08:28.002Z,99.90
2018-11-26T18:10:56.519Z,99.90
2018-11-26T18:13:25.054Z,99.90
2018-11-26T18:15:53.612Z,99.90
2018-11-26T18:18:22.131Z,99.90
2018-11-26T18:20:50.671Z,99.90
2018-11-26T18:23:19.243Z,99.90
2018-11-26T18:25:47.821Z,99.90
2018-11-26T18:28:17.350Z,99.90
2018-11-26T18:30:48.384Z,99.90
2018-11-26T18:33:16.952Z,99.90
2018-11-26T18:35:46.283Z,99.90
2018-11-26T18:38:14.849Z,99.90
2018-11-26T18:40:44.875Z,99.90
2018-11-26T18:43:13.411Z,99.90
2018-11-26T18:45:42.751Z,99.90
2018-11-26T18:48:12.707Z,99.90
2018-11-26T18:50:41.263Z,99.90
2018-11-26T18:53:09.922Z,99.90
2018-11-26T18:55:39.686Z,99.90
2018-11-26T18:58:08.291Z,99.90
2018-11-26T19:00:54.559Z,99.90
2018-11-26T19:03:23.607Z,99.90
2018-11-26T19:05:54.267Z,99.90
2018-11-26T19:08:22.979Z,99.90
2018-11-26T19:10:57.571Z,99.90
2018-11-26T19:13:29.096Z,99.90
2018-11-26T19:16:03.673Z,99.90
2018-11-26T19:18:32.200Z,99.90
2018-11-26T19:21:00.749Z,99.90
2018-11-26T19:23:29.353Z,99.90
2018-11-26T19:25:57.873Z,99.90
2018-11-26T19:28:26.408Z,99.90
2018-11-26T19:30:55.001Z,99.90
2018-11-26T19:33:23.510Z,99.90
2018-11-26T19:35:52.026Z,99.90
2018-11-26T19:38:20.572Z,99.90
2018-11-26T19:40:49.087Z,99.90
2018-11-26T19:43:17.657Z,99.90
2018-11-26T19:45:46.280Z,99.90
2018-11-26T19:48:14.824Z,99.90
2018-11-26T19:50:43.351Z,99.90
2018-11-26T19:53:12.699Z,99.90
2018-11-26T19:55:42.615Z,99.90
2018-11-26T19:58:11.770Z,99.90
2018-11-26T20:00:40.679Z,99.90
2018-11-26T20:03:16.948Z,99.90
2018-11-26T20:05:56.893Z,99.90
2018-11-26T20:08:25.553Z,99.90
2018-11-26T20:10:54.150Z,99.90
2018-11-26T20:13:22.705Z,99.90
2018-11-26T20:15:52.868Z,99.90
2018-11-26T20:18:20.375Z,99.90
2018-11-26T20:20:48.920Z,99.90
2018-11-26T20:23:17.448Z,99.90
2018-11-26T20:25:46.140Z,99.90
2018-11-26T20:28:14.586Z,99.90
2018-11-26T20:30:43.119Z,99.90
2018-11-26T20:33:11.630Z,99.90
2018-11-26T20:35:40.200Z,99.90
2018-11-26T20:38:10.392Z,99.90
2018-11-26T20:40:38.994Z,99.90
2018-11-26T20:43:09.558Z,99.90
2018-11-26T20:45:39.358Z,99.90
2018-11-26T20:48:08.786Z,99.90
2018-11-26T20:50:37.720Z,99.90
2018-11-26T20:53:06.635Z,99.90
2018-11-26T20:55:35.202Z,99.90
2018-11-26T20:58:03.774Z,99.90
2018-11-26T21:00:32.282Z,99.90
2018-11-26T21:03:06.837Z,99.90
2018-11-26T21:05:35.523Z,99.90
2018-11-26T21:08:05.422Z,99.90
2018-11-26T21:10:34.210Z,99.90
2018-11-26T21:13:02.830Z,99.90
2018-11-26T21:15:31.482Z,99.90
2018-11-26T21:18:01.261Z,99.90
2018-11-26T21:20:35.615Z,99.90
2018-11-26T21:23:06.450Z,99.90
2018-11-26T21:25:35.076Z,99.90
2018-11-26T21:28:03.703Z,99.90
2018-11-26T21:30:32.317Z,99.90
2018-11-26T21:33:00.911Z,99.90
2018-11-26T21:35:29.874Z,99.90
2018-11-26T21:37:58.442Z,99.90
2018-11-26T21:40:27.101Z,99.90
2018-11-26T21:42:55.762Z,99.90
2018-11-26T21:45:58.451Z,99.90
2018-11-26T21:48:27.063Z,99.90
2018-11-26T21:50:55.665Z,99.90
2018-11-26T21:53:24.337Z,99.90
2018-11-26T21:55:53.586Z,99.90
2018-11-26T21:58:22.162Z,99.90
2018-11-26T22:00:52.277Z,99.90
2018-11-26T22:03:20.889Z,99.90
2018-11-26T22:05:49.478Z,99.90
2018-11-26T22:08:18.247Z,99.90
2018-11-26T22:10:48.068Z,99.90
2018-11-26T22:13:18.317Z,99.90
2018-11-26T22:15:46.936Z,99.90
2018-11-26T22:18:15.580Z,99.90
2018-11-26T22:20:44.342Z,99.90
2018-11-26T22:23:12.935Z,99.90
2018-11-26T22:25:41.537Z,99.90
2018-11-26T22:28:10.990Z,99.90
2018-11-26T22:30:40.254Z,99.90
2018-11-26T22:33:09.171Z,99.90
2018-11-26T22:35:37.759Z,99.90
2018-11-26T22:38:06.713Z,99.90
2018-11-26T22:40:35.307Z,99.90
2018-11-26T22:43:03.900Z,99.90
2018-11-26T22:45:33.517Z,99.90
2018-11-26T22:48:08.459Z,99.90
2018-11-26T22:50:38.380Z,99.90
2018-11-26T22:53:08.253Z,99.90
2018-11-26T22:55:36.813Z,99.90
2018-11-26T22:58:07.072Z,99.90
2018-11-26T23:00:43.238Z,99.90
2018-11-26T23:03:16.628Z,99.90
2018-11-26T23:05:45.159Z,99.90
2018-11-26T23:08:13.842Z,99.90
2018-11-26T23:10:42.369Z,99.90
2018-11-26T23:13:10.884Z,99.90
2018-11-26T23:15:39.475Z,99.90
2018-11-26T23:18:08.434Z,99.90
2018-11-26T23:20:36.942Z,99.90
2018-11-26T23:23:06.238Z,99.90
2018-11-26T23:25:34.890Z,99.90
2018-11-26T23:28:03.419Z,99.90
2018-11-26T23:30:32.366Z,99.90
2018-11-26T23:33:02.274Z,99.60
2018-11-26T23:35:30.845Z,99.20
2018-11-26T23:37:59.360Z,99.60
2018-11-26T23:40:27.953Z,99.20
2018-11-26T23:42:56.486Z,98.70
2018-11-26T23:45:26.118Z,99.10
2018-11-26T23:47:54.697Z,98.80
2018-11-26T23:50:23.287Z,99.00
2018-11-26T23:52:51.841Z,99.70
2018-11-26T23:55:21.666Z,99.90
2018-11-26T23:57:50.206Z,99.20
